createdAt,value
2018-12-21T00:00:38.121Z,5.20
2018-12-21T00:03:06.546Z,5.57
2018-12-21T00:05:34.856Z,6.30
2018-12-21T00:08:03.359Z,5.40
2018-12-21T00:10:31.709Z,4.70
2018-12-21T00:13:00.206Z,4.87
2018-12-21T00:15:28.533Z,5.43
2018-12-21T00:17:56.981Z,4.73
2018-12-21T00:20:25.498Z,4.83
2018-12-21T00:22:53.881Z,5.27
2018-12-21T00:25:22.329Z,4.60
2018-12-21T00:27:50.708Z,4.93
2018-12-21T00:30:22.379Z,4.87
2018-12-21T00:32:56.521Z,5.07
2018-12-21T00:35:30.233Z,4.60
2018-12-21T00:38:05.662Z,4.43
2018-12-21T00:40:39.613Z,4.17
2018-12-21T00:43:43.325Z,3.47
2018-12-21T00:46:16.094Z,3.00
2018-12-21T00:48:44.789Z,3.07
2018-12-21T00:51:13.214Z,3.00
2018-12-21T00:53:41.594Z,2.60
2018-12-21T00:56:09.926Z,2.60
2018-12-21T00:58:38.398Z,2.53
2018-12-21T01:01:06.806Z,2.53
2018-12-21T01:03:35.305Z,3.03
2018-12-21T01:06:03.938Z,3.10
2018-12-21T01:08:32.381Z,3.30
2018-12-21T01:11:00.776Z,3.90
2018-12-21T01:13:29.537Z,3.93
2018-12-21T01:15:58.094Z,4.00
2018-12-21T01:18:26.419Z,3.70
2018-12-21T01:20:54.658Z,3.63
2018-12-21T01:23:23.110Z,3.93
2018-12-21T01:25:53.210Z,5.00
2018-12-21T01:28:21.606Z,5.20
2018-12-21T01:30:49.864Z,5.67
2018-12-21T01:33:18.280Z,5.37
2018-12-21T01:35:46.709Z,5.07
2018-12-21T01:38:15.064Z,5.67
2018-12-21T01:40:43.374Z,6.00
2018-12-21T01:43:11.881Z,7.87
2018-12-21T01:45:40.358Z,9.03
2018-12-21T01:48:08.693Z,10.60
2018-12-21T01:50:37.028Z,11.57
2018-12-21T01:53:05.396Z,11.50
2018-12-21T01:55:33.788Z,12.07
2018-12-21T01:58:02.181Z,12.27
2018-12-21T02:00:30.786Z,11.73
2018-12-21T02:02:59.144Z,11.53
2018-12-21T02:05:27.645Z,11.40
2018-12-21T02:07:56.026Z,10.80
2018-12-21T02:10:24.480Z,10.40
2018-12-21T02:12:52.876Z,10.57
2018-12-21T02:15:21.411Z,9.90
2018-12-21T02:17:49.700Z,9.60
2018-12-21T02:20:18.230Z,9.27
2018-12-21T02:22:46.822Z,9.10
2018-12-21T02:25:15.254Z,9.47
2018-12-21T02:27:43.618Z,9.27
2018-12-21T02:30:11.948Z,8.77
2018-12-21T02:32:40.317Z,8.90
2018-12-21T02:35:09.373Z,8.73
2018-12-21T02:37:37.701Z,9.07
2018-12-21T02:40:06.861Z,8.77
2018-12-21T02:42:35.232Z,8.50
2018-12-21T02:45:03.902Z,8.10
2018-12-21T02:47:32.129Z,8.47
2018-12-21T02:50:00.462Z,8.83
2018-12-21T02:52:28.844Z,7.63
2018-12-21T02:54:57.455Z,7.77
2018-12-21T02:57:25.868Z,7.53
2018-12-21T02:59:54.103Z,6.27
2018-12-21T03:02:22.502Z,5.70
2018-12-21T03:04:50.857Z,5.50
2018-12-21T03:07:19.273Z,5.37
2018-12-21T03:09:47.691Z,5.30
2018-12-21T03:12:16.069Z,5.57
2018-12-21T03:14:44.506Z,4.70
2018-12-21T03:17:12.880Z,4.63
2018-12-21T03:19:41.273Z,5.37
2018-12-21T03:22:14.673Z,5.20
2018-12-21T03:24:40.007Z,4.73
2018-12-21T03:27:08.363Z,5.50
2018-12-21T03:29:36.698Z,5.17
2018-12-21T03:32:05.194Z,6.07
2018-12-21T03:34:33.775Z,5.93
2018-12-21T03:37:02.125Z,6.77
2018-12-21T03:39:30.546Z,7.10
2018-12-21T03:41:58.919Z,7.10
2018-12-21T03:44:27.346Z,7.73
2018-12-21T03:46:55.675Z,7.07
2018-12-21T03:49:24.004Z,6.63
2018-12-21T03:51:52.282Z,7.17
2018-12-21T03:54:20.537Z,7.00
2018-12-21T03:56:48.986Z,6.83
2018-12-21T03:59:17.319Z,7.20
2018-12-21T04:01:45.796Z,7.20
2018-12-21T04:04:14.161Z,6.93
2018-12-21T04:06:42.543Z,6.97
2018-12-21T04:09:10.829Z,6.50
2018-12-21T04:11:39.189Z,6.23
2018-12-21T04:14:07.573Z,5.47
2018-12-21T04:16:35.912Z,6.23
2018-12-21T04:19:04.276Z,6.57
2018-12-21T04:21:32.665Z,7.07
2018-12-21T04:24:01.261Z,6.73
2018-12-21T04:26:29.667Z,7.63
2018-12-21T04:28:58.037Z,6.70
2018-12-21T04:31:26.329Z,6.67
2018-12-21T04:33:55.037Z,6.20
2018-12-21T04:36:23.458Z,7.30
2018-12-21T04:38:51.866Z,9.63
2018-12-21T04:41:20.162Z,12.53
2018-12-21T04:43:48.580Z,13.30
2018-12-21T04:46:17.029Z,13.20
2018-12-21T04:48:45.454Z,14.73
2018-12-21T04:51:13.858Z,14.40
2018-12-21T04:53:42.352Z,15.50
2018-12-21T04:56:10.693Z,15.70
2018-12-21T04:58:39.461Z,14.97
2018-12-21T05:01:07.826Z,13.80
2018-12-21T05:03:36.193Z,14.63
2018-12-21T05:06:04.645Z,13.20
2018-12-21T05:08:32.993Z,12.87
2018-12-21T05:11:01.500Z,11.37
2018-12-21T05:13:29.871Z,10.30
2018-12-21T05:15:58.308Z,9.40
2018-12-21T05:18:26.593Z,9.37
2018-12-21T05:20:55.022Z,8.50
2018-12-21T05:23:23.421Z,8.00
2018-12-21T05:25:51.782Z,8.77
2018-12-21T05:28:20.342Z,8.27
2018-12-21T05:30:48.746Z,7.67
2018-12-21T05:33:17.003Z,6.83
2018-12-21T05:35:45.446Z,6.77
2018-12-21T05:38:13.711Z,6.43
2018-12-21T05:40:42.040Z,6.80
2018-12-21T05:43:10.417Z,6.73
2018-12-21T05:45:38.839Z,7.40
2018-12-21T05:48:07.308Z,7.33
2018-12-21T05:50:35.605Z,7.57
2018-12-21T05:53:03.931Z,8.20
2018-12-21T05:55:32.278Z,8.70
2018-12-21T05:58:00.550Z,8.70
2018-12-21T06:00:28.999Z,8.93
2018-12-21T06:02:57.275Z,7.50
2018-12-21T06:05:26.174Z,6.93
2018-12-21T06:07:54.473Z,5.53
2018-12-21T06:10:23.044Z,4.97
2018-12-21T06:12:51.430Z,5.30
2018-12-21T06:15:19.945Z,5.10
2018-12-21T06:17:48.386Z,5.03
2018-12-21T06:20:16.861Z,5.13
2018-12-21T06:22:51.886Z,5.90
2018-12-21T06:25:20.299Z,5.30
2018-12-21T06:27:48.643Z,5.43
2018-12-21T06:30:17.217Z,7.60
2018-12-21T06:32:45.693Z,9.07
2018-12-21T06:35:14.215Z,12.30
2018-12-21T06:37:42.619Z,13.97
2018-12-21T06:40:11.378Z,15.03
2018-12-21T06:42:39.717Z,17.07
2018-12-21T06:45:08.069Z,17.43
2018-12-21T06:47:36.465Z,17.83
2018-12-21T06:50:05.853Z,16.43
2018-12-21T06:52:34.234Z,15.57
2018-12-21T06:55:02.548Z,15.47
2018-12-21T06:57:31.076Z,15.27
2018-12-21T06:59:59.471Z,15.10
2018-12-21T07:02:27.786Z,15.40
2018-12-21T07:04:56.080Z,14.67
2018-12-21T07:07:24.500Z,14.27
2018-12-21T07:09:52.890Z,14.10
2018-12-21T07:12:21.269Z,13.27
2018-12-21T07:14:49.942Z,12.13
2018-12-21T07:17:18.629Z,12.00
2018-12-21T07:19:47.265Z,11.37
2018-12-21T07:22:15.829Z,11.60
2018-12-21T07:24:44.308Z,11.77
2018-12-21T07:27:12.740Z,11.43
2018-12-21T07:29:41.121Z,11.77
2018-12-21T07:32:41.652Z,11.60
2018-12-21T07:35:30.442Z,11.47
2018-12-21T07:37:58.791Z,9.43
2018-12-21T07:40:27.673Z,9.63
2018-12-21T07:42:56.064Z,10.27
2018-12-21T07:45:24.504Z,13.60
2018-12-21T07:47:52.805Z,15.47
2018-12-21T07:50:21.197Z,16.20
2018-12-21T07:52:49.605Z,15.03
2018-12-21T07:55:18.172Z,13.53
2018-12-21T07:57:46.743Z,13.63
2018-12-21T08:00:15.097Z,13.13
2018-12-21T08:02:43.586Z,11.07
2018-12-21T08:05:12.350Z,12.40
2018-12-21T08:07:40.561Z,13.07
2018-12-21T08:10:16.229Z,12.20
2018-12-21T08:12:44.490Z,11.07
2018-12-21T08:15:12.908Z,10.57
2018-12-21T08:17:41.254Z,10.67
2018-12-21T08:20:10.630Z,12.60
2018-12-21T08:22:39.026Z,17.23
2018-12-21T08:25:07.824Z,19.97
2018-12-21T08:27:36.135Z,23.20
2018-12-21T08:30:05.510Z,24.77
2018-12-21T08:32:34.040Z,26.63
2018-12-21T08:35:02.562Z,29.97
2018-12-21T08:37:30.954Z,28.93
2018-12-21T08:39:59.373Z,38.07
2018-12-21T08:42:28.060Z,35.73
2018-12-21T08:44:56.565Z,37.47
2018-12-21T08:47:25.066Z,33.57
2018-12-21T08:49:53.301Z,32.63
2018-12-21T08:52:21.654Z,33.10
2018-12-21T08:54:49.965Z,31.27
2018-12-21T08:57:18.330Z,32.30
2018-12-21T08:59:46.630Z,33.60
2018-12-21T09:02:15.038Z,35.00
2018-12-21T09:04:43.563Z,35.03
2018-12-21T09:07:12.128Z,37.63
2018-12-21T09:09:40.554Z,36.83
2018-12-21T09:12:09.293Z,31.70
2018-12-21T09:15:04.779Z,32.83
2018-12-21T09:17:33.077Z,32.70
2018-12-21T09:20:01.394Z,33.70
2018-12-21T09:22:29.622Z,33.77
2018-12-21T09:24:57.934Z,40.13
2018-12-21T09:27:26.226Z,39.77
2018-12-21T09:29:54.542Z,44.27
2018-12-21T09:32:22.908Z,42.83
2018-12-21T09:34:51.338Z,37.33
2018-12-21T09:37:19.659Z,35.37
2018-12-21T09:39:47.998Z,39.97
2018-12-21T09:42:16.296Z,42.67
2018-12-21T09:44:52.349Z,38.97
2018-12-21T09:47:14.963Z,37.73
2018-12-21T09:49:43.429Z,36.63
2018-12-21T09:52:11.896Z,35.07
2018-12-21T09:54:40.348Z,35.73
2018-12-21T09:57:08.738Z,44.17
2018-12-21T09:59:36.978Z,50.27
2018-12-21T10:02:05.354Z,46.03
2018-12-21T10:04:33.737Z,43.13
2018-12-21T10:07:01.990Z,39.97
2018-12-21T10:09:30.306Z,38.27
2018-12-21T10:11:58.742Z,39.20
2018-12-21T10:14:48.052Z,43.30
2018-12-21T10:17:16.494Z,43.70
2018-12-21T10:19:44.857Z,39.77
2018-12-21T10:22:13.251Z,42.60
2018-12-21T10:24:41.665Z,42.50
2018-12-21T10:27:09.986Z,44.50
2018-12-21T10:29:38.205Z,46.73
2018-12-21T10:32:06.452Z,46.20
2018-12-21T10:34:34.657Z,40.67
2018-12-21T10:37:02.998Z,35.30
2018-12-21T10:39:31.397Z,33.90
2018-12-21T10:41:59.909Z,32.07
2018-12-21T10:44:28.287Z,33.13
2018-12-21T10:46:56.750Z,34.10
2018-12-21T10:49:25.144Z,34.70
2018-12-21T10:51:53.501Z,37.00
2018-12-21T10:54:26.817Z,36.73
2018-12-21T10:56:52.239Z,37.77
2018-12-21T10:59:21.179Z,37.90
2018-12-21T11:01:49.614Z,35.63
2018-12-21T11:04:18.060Z,32.43
2018-12-21T11:06:46.388Z,33.10
2018-12-21T11:09:14.885Z,33.20
2018-12-21T11:11:43.228Z,34.50
2018-12-21T11:14:11.613Z,39.27
2018-12-21T11:16:39.972Z,41.57
2018-12-21T11:19:08.399Z,39.27
2018-12-21T11:21:36.657Z,59.60
2018-12-21T11:24:05.145Z,66.77
2018-12-21T11:26:33.470Z,71.60
2018-12-21T11:29:01.816Z,75.50
2018-12-21T11:31:30.233Z,72.43
2018-12-21T11:33:58.557Z,67.60
2018-12-21T11:36:26.925Z,64.37
2018-12-21T11:38:55.300Z,61.37
2018-12-21T11:41:23.528Z,48.23
2018-12-21T11:43:51.962Z,37.57
2018-12-21T11:46:20.357Z,39.10
2018-12-21T11:48:48.789Z,40.97
2018-12-21T11:51:17.178Z,38.63
2018-12-21T11:53:45.587Z,37.63
2018-12-21T11:56:14.046Z,32.70
2018-12-21T11:58:42.504Z,31.27
2018-12-21T12:01:10.953Z,22.50
2018-12-21T12:03:39.285Z,19.70
2018-12-21T12:06:07.662Z,18.37
2018-12-21T12:08:36.078Z,15.73
2018-12-21T12:11:04.523Z,14.33
2018-12-21T12:13:32.862Z,15.73
2018-12-21T12:16:01.216Z,17.63
2018-12-21T12:18:29.605Z,17.73
2018-12-21T12:20:57.959Z,17.03
2018-12-21T12:23:26.329Z,19.20
2018-12-21T12:25:54.673Z,19.43
2018-12-21T12:28:23.049Z,16.93
2018-12-21T12:30:51.612Z,17.83
2018-12-21T12:33:20.012Z,17.23
2018-12-21T12:35:48.489Z,14.60
2018-12-21T12:38:16.849Z,11.37
2018-12-21T12:40:45.302Z,9.37
2018-12-21T12:43:13.599Z,8.93
2018-12-21T12:45:41.805Z,9.13
2018-12-21T12:48:10.174Z,9.73
2018-12-21T12:50:38.521Z,9.90
2018-12-21T12:53:06.951Z,10.07
2018-12-21T12:55:35.338Z,8.67
2018-12-21T12:58:03.806Z,8.37
2018-12-21T13:00:32.401Z,7.97
2018-12-21T13:03:00.798Z,6.70
2018-12-21T13:05:29.218Z,7.07
2018-12-21T13:07:57.738Z,6.57
2018-12-21T13:10:26.083Z,6.03
2018-12-21T13:12:54.384Z,6.20
2018-12-21T13:15:50.550Z,7.10
2018-12-21T13:18:18.945Z,8.43
2018-12-21T13:20:47.343Z,11.07
2018-12-21T13:23:15.700Z,10.73
2018-12-21T13:25:44.054Z,11.57
2018-12-21T13:28:12.445Z,10.63
2018-12-21T13:30:40.893Z,11.03
2018-12-21T13:33:09.422Z,9.73
2018-12-21T13:35:37.718Z,9.20
2018-12-21T13:38:05.986Z,9.27
2018-12-21T13:40:34.372Z,11.00
2018-12-21T13:43:02.596Z,13.67
2018-12-21T13:45:31.248Z,14.67
2018-12-21T13:47:59.620Z,15.07
2018-12-21T13:50:28.132Z,18.07
2018-12-21T13:52:56.364Z,18.00
2018-12-21T13:55:24.844Z,17.13
2018-12-21T13:57:53.189Z,18.47
2018-12-21T14:00:21.434Z,19.40
2018-12-21T14:02:49.890Z,20.10
2018-12-21T14:05:18.253Z,18.47
2018-12-21T14:07:46.754Z,22.43
2018-12-21T14:10:14.977Z,20.23
2018-12-21T14:12:43.554Z,18.40
2018-12-21T14:15:48.616Z,17.57
2018-12-21T14:18:17.050Z,14.30
2018-12-21T14:20:45.499Z,13.90
2018-12-21T14:23:13.892Z,17.93
2018-12-21T14:25:42.174Z,26.80
2018-12-21T14:28:10.487Z,18.40
2018-12-21T14:30:38.789Z,11.57
2018-12-21T14:33:07.606Z,8.03
2018-12-21T14:35:35.973Z,7.73
2018-12-21T14:38:04.277Z,7.17
2018-12-21T14:40:32.681Z,7.90
2018-12-21T14:43:01.337Z,8.60
2018-12-21T14:45:30.023Z,8.70
2018-12-21T14:47:58.517Z,12.30
2018-12-21T14:50:26.977Z,16.50
2018-12-21T14:52:55.761Z,22.33
2018-12-21T14:55:24.085Z,26.27
2018-12-21T14:57:52.530Z,35.63
2018-12-21T15:00:20.995Z,39.60
2018-12-21T15:02:49.442Z,33.00
2018-12-21T15:05:17.849Z,29.37
2018-12-21T15:07:46.177Z,30.43
2018-12-21T15:10:14.634Z,29.63
2018-12-21T15:12:43.050Z,22.97
2018-12-21T15:15:42.703Z,18.70
2018-12-21T15:18:11.130Z,18.20
2018-12-21T15:20:39.578Z,21.40
2018-12-21T15:23:07.842Z,24.53
2018-12-21T15:25:36.254Z,26.23
2018-12-21T15:28:04.769Z,28.10
2018-12-21T15:30:33.559Z,29.83
2018-12-21T15:33:01.827Z,30.63
2018-12-21T15:35:30.515Z,30.43
2018-12-21T15:37:58.960Z,28.43
2018-12-21T15:40:27.489Z,26.60
2018-12-21T15:42:55.832Z,25.00
2018-12-21T15:45:24.760Z,26.67
2018-12-21T15:47:53.513Z,26.10
2018-12-21T15:50:22.017Z,26.83
2018-12-21T15:52:50.647Z,29.60
2018-12-21T15:55:19.185Z,31.50
2018-12-21T15:57:47.744Z,32.03
2018-12-21T16:00:16.767Z,27.13
2018-12-21T16:02:48.677Z,26.53
2018-12-21T16:05:17.883Z,29.27
2018-12-21T16:07:46.209Z,60.23
2018-12-21T16:10:14.513Z,65.97
2018-12-21T16:12:42.924Z,48.77
2018-12-21T16:18:26.140Z,35.47
2018-12-21T16:20:54.559Z,30.03
2018-12-21T16:23:23.005Z,27.13
2018-12-21T16:25:51.826Z,26.17
2018-12-21T16:28:20.265Z,27.57
2018-12-21T16:30:48.670Z,37.53
2018-12-21T16:33:17.039Z,40.60
2018-12-21T16:35:45.463Z,37.00
2018-12-21T16:38:15.863Z,47.73
2018-12-21T16:40:44.109Z,57.60
2018-12-21T16:43:12.464Z,47.33
2018-12-21T16:45:40.801Z,37.13
2018-12-21T16:48:09.003Z,29.47
2018-12-21T16:50:37.246Z,20.93
2018-12-21T16:53:05.703Z,14.67
2018-12-21T16:55:34.178Z,16.80
2018-12-21T16:58:02.566Z,14.97
2018-12-21T17:00:30.937Z,13.90
2018-12-21T17:02:59.219Z,13.37
2018-12-21T17:05:27.691Z,13.40
2018-12-21T17:07:56.049Z,17.17
2018-12-21T17:10:25.068Z,23.03
2018-12-21T17:12:53.653Z,25.13
2018-12-21T17:18:42.513Z,19.67
2018-12-21T17:21:10.905Z,15.37
2018-12-21T17:23:39.214Z,11.37
2018-12-21T17:26:07.570Z,9.27
2018-12-21T17:28:35.950Z,9.57
2018-12-21T17:31:04.395Z,10.53
2018-12-21T17:33:32.681Z,10.13
2018-12-21T17:36:01.070Z,10.50
2018-12-21T17:38:29.510Z,9.93
2018-12-21T17:40:57.810Z,12.20
2018-12-21T17:43:26.168Z,10.20
2018-12-21T17:45:54.568Z,7.87
2018-12-21T17:48:23.004Z,7.63
2018-12-21T17:50:51.491Z,10.43
2018-12-21T17:53:19.918Z,10.50
2018-12-21T17:55:48.239Z,11.10
2018-12-21T17:58:16.678Z,11.10
2018-12-21T18:00:44.962Z,10.17
2018-12-21T18:03:27.953Z,11.17
2018-12-21T18:05:56.309Z,11.47
2018-12-21T18:08:24.553Z,13.10
2018-12-21T18:10:52.834Z,11.63
2018-12-21T18:13:21.079Z,8.43
2018-12-21T18:19:07.187Z,6.40
2018-12-21T18:21:42.984Z,6.40
2018-12-21T18:24:11.229Z,5.60
2018-12-21T18:26:39.647Z,5.37
2018-12-21T18:29:07.966Z,4.90
2018-12-21T18:31:55.127Z,4.90
2018-12-21T18:34:39.226Z,4.80
2018-12-21T18:37:09.587Z,5.43
2018-12-21T18:39:37.990Z,4.87
2018-12-21T18:42:06.501Z,5.07
2018-12-21T18:44:34.812Z,4.93
2018-12-21T18:47:03.229Z,4.73
2018-12-21T18:49:31.769Z,4.83
2018-12-21T18:52:00.250Z,4.73
2018-12-21T18:54:28.905Z,4.90
2018-12-21T18:57:14.921Z,43.77
2018-12-21T18:59:43.314Z,41.33
2018-12-21T19:02:11.650Z,25.90
2018-12-21T19:04:40.058Z,17.27
2018-12-21T19:07:08.501Z,14.80
2018-12-21T19:09:36.946Z,9.57
2018-12-21T19:12:05.280Z,5.53
2018-12-21T19:15:22.465Z,5.43
2018-12-21T19:17:51.074Z,4.50
2018-12-21T19:20:19.538Z,4.30
2018-12-21T19:22:47.838Z,4.77
2018-12-21T19:25:16.176Z,4.13
2018-12-21T19:27:44.577Z,4.20
2018-12-21T19:30:13.642Z,4.50
2018-12-21T19:32:42.677Z,4.57
2018-12-21T19:35:12.618Z,4.33
2018-12-21T19:37:40.938Z,4.87
2018-12-21T19:40:11.337Z,5.03
2018-12-21T19:42:45.397Z,4.97
2018-12-21T19:45:14.182Z,5.80
2018-12-21T19:47:42.708Z,5.03
2018-12-21T19:50:12.277Z,4.80
2018-12-21T19:52:42.106Z,4.53
2018-12-21T19:55:40.108Z,4.30
2018-12-21T19:58:08.677Z,4.17
2018-12-21T20:00:37.915Z,4.13
2018-12-21T20:03:06.339Z,4.50
2018-12-21T20:05:34.678Z,4.53
2018-12-21T20:08:03.235Z,4.50
2018-12-21T20:10:31.534Z,4.47
2018-12-21T20:13:00.209Z,3.63
2018-12-21T20:16:05.169Z,4.10
2018-12-21T20:18:33.786Z,3.80
2018-12-21T20:21:02.195Z,3.60
2018-12-21T20:23:31.085Z,3.73
2018-12-21T20:25:59.712Z,3.30
2018-12-21T20:28:28.170Z,3.40
2018-12-21T20:30:57.733Z,3.43
2018-12-21T20:33:26.180Z,3.80
2018-12-21T20:35:54.520Z,3.80
2018-12-21T20:38:22.963Z,3.87
2018-12-21T20:40:51.222Z,3.70
2018-12-21T20:43:19.587Z,3.93
2018-12-21T20:45:48.110Z,3.67
2018-12-21T20:48:16.658Z,3.50
2018-12-21T20:50:44.990Z,3.53
2018-12-21T20:53:13.266Z,3.60
2018-12-21T20:55:41.538Z,5.10
2018-12-21T20:58:17.465Z,4.73
2018-12-21T21:00:45.749Z,4.63
2018-12-21T21:03:14.174Z,4.40
2018-12-21T21:05:44.056Z,4.00
2018-12-21T21:08:12.975Z,3.73
2018-12-21T21:10:41.502Z,3.83
2018-12-21T21:13:19.047Z,3.60
2018-12-21T21:15:54.287Z,3.90
2018-12-21T21:18:23.025Z,3.73
2018-12-21T21:20:51.943Z,3.53
2018-12-21T21:23:20.254Z,3.07
2018-12-21T21:26:24.914Z,3.27
2018-12-21T21:28:53.644Z,3.80
2018-12-21T21:31:22.330Z,3.73
2018-12-21T21:33:50.650Z,3.37
2018-12-21T21:36:19.054Z,3.80
2018-12-21T21:38:47.376Z,3.80
2018-12-21T21:41:15.695Z,4.20
2018-12-21T21:43:44.161Z,3.67
2018-12-21T21:46:12.565Z,4.30
2018-12-21T21:48:40.846Z,4.03
2018-12-21T21:51:09.158Z,3.47
2018-12-21T21:53:37.546Z,3.77
2018-12-21T21:56:05.944Z,3.37
2018-12-21T21:58:34.317Z,3.70
2018-12-21T22:01:02.636Z,4.30
2018-12-21T22:03:31.099Z,3.63
2018-12-21T22:05:59.479Z,4.03
2018-12-21T22:08:27.800Z,3.50
2018-12-21T22:11:01.859Z,3.93
2018-12-21T22:13:26.698Z,4.00
2018-12-21T22:16:26.840Z,3.70
2018-12-21T22:18:55.218Z,3.43
2018-12-21T22:21:23.890Z,3.23
2018-12-21T22:23:52.253Z,3.30
2018-12-21T22:26:20.682Z,3.47
2018-12-21T22:28:49.089Z,3.17
2018-12-21T22:31:17.374Z,3.67
2018-12-21T22:33:45.706Z,2.83
2018-12-21T22:36:14.085Z,3.10
2018-12-21T22:38:42.521Z,3.23
2018-12-21T22:41:10.885Z,2.83
2018-12-21T22:43:39.221Z,3.53
2018-12-21T22:46:08.049Z,2.97
2018-12-21T22:48:36.347Z,3.20
2018-12-21T22:51:04.702Z,3.67
2018-12-21T22:53:33.148Z,2.93
2018-12-21T22:56:01.398Z,3.20
2018-12-21T22:58:29.749Z,3.40
2018-12-21T23:00:58.221Z,2.73
2018-12-21T23:03:26.469Z,3.63
2018-12-21T23:05:54.758Z,3.47
2018-12-21T23:08:23.010Z,3.37
2018-12-21T23:10:51.450Z,3.57
2018-12-21T23:13:19.806Z,3.17
2018-12-21T23:15:48.909Z,3.00
2018-12-21T23:18:17.333Z,3.10
2018-12-21T23:20:45.625Z,3.00
2018-12-21T23:23:13.935Z,2.93
2018-12-21T23:25:42.392Z,2.47
2018-12-21T23:28:10.587Z,2.87
2018-12-21T23:30:39.341Z,2.67
2018-12-21T23:33:07.663Z,2.70
2018-12-21T23:35:35.909Z,2.50
2018-12-21T23:38:04.437Z,2.17
2018-12-21T23:40:32.906Z,2.70
2018-12-21T23:43:01.230Z,2.50
2018-12-21T23:45:29.579Z,2.10
2018-12-21T23:47:58.023Z,2.40
2018-12-21T23:50:26.535Z,1.90
2018-12-21T23:52:54.982Z,2.10
2018-12-21T23:55:23.561Z,2.70
2018-12-21T23:57:52.073Z,2.57
